sensor_id;sensor_type;location;lat;lon;timestamp;P1;durP1;ratioP1;P2;durP2;ratioP2
4527;SDS011;62320;51.520;6.818;2022-10-17T00:06:34;9.80;;;5.37;;
4527;SDS011;62320;51.520;6.818;2022-10-17T00:16:35;12.33;;;5.80;;
4527;SDS011;62320;51.520;6.818;2022-10-17T00:26:37;10.38;;;5.38;;
4527;SDS011;62320;51.520;6.818;2022-10-17T00:36:39;10.60;;;5.78;;
4527;SDS011;62320;51.520;6.818;2022-10-17T00:46:40;11.30;;;6.00;;
4527;SDS011;62320;51.520;6.818;2022-10-17T00:56:42;11.20;;;5.70;;
4527;SDS011;62320;51.520;6.818;2022-10-17T01:06:44;11.82;;;6.10;;
4527;SDS011;62320;51.520;6.818;2022-10-17T01:37:33;11.55;;;6.05;;
4527;SDS011;62320;51.520;6.818;2022-10-17T01:47:44;13.83;;;6.47;;
4527;SDS011;62320;51.520;6.818;2022-10-17T01:57:49;12.20;;;6.63;;
4527;SDS011;62320;51.520;6.818;2022-10-17T02:07:55;12.93;;;5.93;;
4527;SDS011;62320;51.520;6.818;2022-10-17T02:28:28;12.33;;;5.83;;
4527;SDS011;62320;51.520;6.818;2022-10-17T02:38:42;12.27;;;6.00;;
4527;SDS011;62320;51.520;6.818;2022-10-17T02:48:57;10.75;;;5.45;;
4527;SDS011;62320;51.520;6.818;2022-10-17T02:59:02;10.80;;;5.73;;
4527;SDS011;62320;51.520;6.818;2022-10-17T03:09:08;11.00;;;5.83;;
4527;SDS011;62320;51.520;6.818;2022-10-17T03:19:09;11.80;;;5.88;;
4527;SDS011;62320;51.520;6.818;2022-10-17T03:29:12;12.17;;;5.97;;
4527;SDS011;62320;51.520;6.818;2022-10-17T03:39:13;14.07;;;6.23;;
4527;SDS011;62320;51.520;6.818;2022-10-17T03:49:15;11.50;;;5.88;;
4527;SDS011;62320;51.520;6.818;2022-10-17T03:59:16;9.52;;;5.20;;
4527;SDS011;62320;51.520;6.818;2022-10-17T04:09:18;10.70;;;5.57;;
4527;SDS011;62320;51.520;6.818;2022-10-17T04:19:19;10.63;;;5.23;;
4527;SDS011;62320;51.520;6.818;2022-10-17T04:29:20;10.13;;;5.13;;
4527;SDS011;62320;51.520;6.818;2022-10-17T04:39:22;9.33;;;5.20;;
4527;SDS011;62320;51.520;6.818;2022-10-17T04:49:23;12.17;;;5.80;;
4527;SDS011;62320;51.520;6.818;2022-10-17T04:59:24;11.30;;;5.65;;
4527;SDS011;62320;51.520;6.818;2022-10-17T05:09:26;12.27;;;5.30;;
4527;SDS011;62320;51.520;6.818;2022-10-17T05:19:27;11.93;;;5.87;;
4527;SDS011;62320;51.520;6.818;2022-10-17T05:29:29;11.60;;;5.80;;
4527;SDS011;62320;51.520;6.818;2022-10-17T05:39:30;11.90;;;5.17;;
4527;SDS011;62320;51.520;6.818;2022-10-17T05:49:32;10.97;;;5.00;;
4527;SDS011;62320;51.520;6.818;2022-10-17T05:59:50;9.97;;;5.50;;
4527;SDS011;62320;51.520;6.818;2022-10-17T06:09:51;9.73;;;5.40;;
4527;SDS011;62320;51.520;6.818;2022-10-17T06:19:52;10.57;;;5.30;;
4527;SDS011;62320;51.520;6.818;2022-10-17T06:29:54;8.70;;;4.73;;
4527;SDS011;62320;51.520;6.818;2022-10-17T06:39:55;10.00;;;4.68;;
4527;SDS011;62320;51.520;6.818;2022-10-17T06:49:56;8.90;;;5.20;;
4527;SDS011;62320;51.520;6.818;2022-10-17T06:59:58;10.33;;;6.17;;
4527;SDS011;62320;51.520;6.818;2022-10-17T07:09:59;10.77;;;5.38;;
4527;SDS011;62320;51.520;6.818;2022-10-17T07:20:01;10.07;;;5.00;;
4527;SDS011;62320;51.520;6.818;2022-10-17T07:30:02;10.70;;;4.80;;
4527;SDS011;62320;51.520;6.818;2022-10-17T07:40:04;15.10;;;5.30;;
4527;SDS011;62320;51.520;6.818;2022-10-17T07:50:08;10.95;;;4.80;;
4527;SDS011;62320;51.520;6.818;2022-10-17T08:00:09;10.53;;;4.90;;
4527;SDS011;62320;51.520;6.818;2022-10-17T08:10:12;10.70;;;4.70;;
4527;SDS011;62320;51.520;6.818;2022-10-17T08:20:14;9.52;;;4.72;;
4527;SDS011;62320;51.520;6.818;2022-10-17T08:30:16;7.80;;;4.47;;
4527;SDS011;62320;51.520;6.818;2022-10-17T08:40:19;11.53;;;4.70;;
4527;SDS011;62320;51.520;6.818;2022-10-17T09:00:52;12.03;;;4.37;;
4527;SDS011;62320;51.520;6.818;2022-10-17T09:11:09;9.97;;;4.70;;
4527;SDS011;62320;51.520;6.818;2022-10-17T09:21:32;12.03;;;5.03;;
4527;SDS011;62320;51.520;6.818;2022-10-17T09:31:44;10.18;;;4.55;;
4527;SDS011;62320;51.520;6.818;2022-10-17T09:41:58;17.13;;;4.60;;
4527;SDS011;62320;51.520;6.818;2022-10-17T09:52:03;8.60;;;4.87;;
4527;SDS011;62320;51.520;6.818;2022-10-17T10:02:06;10.15;;;4.13;;
4527;SDS011;62320;51.520;6.818;2022-10-17T10:12:29;9.57;;;3.90;;
4527;SDS011;62320;51.520;6.818;2022-10-17T10:22:35;11.10;;;4.47;;
4527;SDS011;62320;51.520;6.818;2022-10-17T10:32:36;8.50;;;4.20;;
4527;SDS011;62320;51.520;6.818;2022-10-17T10:42:38;11.20;;;4.73;;
4527;SDS011;62320;51.520;6.818;2022-10-17T10:52:45;8.60;;;4.60;;
4527;SDS011;62320;51.520;6.818;2022-10-17T11:23:09;9.30;;;5.43;;
4527;SDS011;62320;51.520;6.818;2022-10-17T12:14:49;11.15;;;5.78;;
4527;SDS011;62320;51.520;6.818;2022-10-17T12:24:52;10.03;;;5.60;;
4527;SDS011;62320;51.520;6.818;2022-10-17T12:35:01;12.43;;;5.57;;
4527;SDS011;62320;51.520;6.818;2022-10-17T12:45:26;9.20;;;5.30;;
4527;SDS011;62320;51.520;6.818;2022-10-17T12:55:44;11.63;;;5.97;;
4527;SDS011;62320;51.520;6.818;2022-10-17T13:05:56;11.83;;;6.20;;
4527;SDS011;62320;51.520;6.818;2022-10-17T13:16:01;10.70;;;5.40;;
4527;SDS011;62320;51.520;6.818;2022-10-17T13:26:17;12.77;;;5.82;;
4527;SDS011;62320;51.520;6.818;2022-10-17T13:36:22;11.73;;;5.00;;
4527;SDS011;62320;51.520;6.818;2022-10-17T13:46:29;10.13;;;4.57;;
4527;SDS011;62320;51.520;6.818;2022-10-17T13:56:40;9.15;;;4.72;;
4527;SDS011;62320;51.520;6.818;2022-10-17T14:06:42;9.52;;;4.57;;
4527;SDS011;62320;51.520;6.818;2022-10-17T14:16:51;8.50;;;4.10;;
4527;SDS011;62320;51.520;6.818;2022-10-17T14:26:53;11.27;;;5.20;;
4527;SDS011;62320;51.520;6.818;2022-10-17T14:36:59;9.70;;;3.90;;
4527;SDS011;62320;51.520;6.818;2022-10-17T14:47:02;9.27;;;4.60;;
4527;SDS011;62320;51.520;6.818;2022-10-17T14:57:47;10.67;;;4.53;;
4527;SDS011;62320;51.520;6.818;2022-10-17T15:07:47;8.13;;;4.55;;
4527;SDS011;62320;51.520;6.818;2022-10-17T15:17:49;11.13;;;5.47;;
4527;SDS011;62320;51.520;6.818;2022-10-17T15:27:50;11.00;;;5.03;;
4527;SDS011;62320;51.520;6.818;2022-10-17T15:37:53;11.10;;;5.15;;
4527;SDS011;62320;51.520;6.818;2022-10-17T15:47:55;9.97;;;4.97;;
4527;SDS011;62320;51.520;6.818;2022-10-17T15:58:00;9.53;;;4.40;;
4527;SDS011;62320;51.520;6.818;2022-10-17T16:08:01;10.70;;;4.87;;
4527;SDS011;62320;51.520;6.818;2022-10-17T16:18:02;9.25;;;5.45;;
4527;SDS011;62320;51.520;6.818;2022-10-17T16:28:08;9.83;;;5.03;;
4527;SDS011;62320;51.520;6.818;2022-10-17T16:38:11;8.77;;;4.27;;
4527;SDS011;62320;51.520;6.818;2022-10-17T16:48:13;10.63;;;4.80;;
4527;SDS011;62320;51.520;6.818;2022-10-17T16:58:14;11.33;;;5.17;;
4527;SDS011;62320;51.520;6.818;2022-10-17T17:08:16;10.77;;;5.40;;
4527;SDS011;62320;51.520;6.818;2022-10-17T17:18:18;9.52;;;4.90;;
4527;SDS011;62320;51.520;6.818;2022-10-17T17:28:20;10.50;;;5.40;;
4527;SDS011;62320;51.520;6.818;2022-10-17T17:38:22;10.10;;;5.37;;
4527;SDS011;62320;51.520;6.818;2022-10-17T17:48:24;10.53;;;5.53;;
4527;SDS011;62320;51.520;6.818;2022-10-17T17:58:25;9.55;;;5.38;;
4527;SDS011;62320;51.520;6.818;2022-10-17T18:08:27;11.47;;;6.10;;
4527;SDS011;62320;51.520;6.818;2022-10-17T18:18:28;10.23;;;5.80;;
4527;SDS011;62320;51.520;6.818;2022-10-17T18:28:32;11.05;;;6.15;;
4527;SDS011;62320;51.520;6.818;2022-10-17T18:38:35;12.73;;;6.00;;
4527;SDS011;62320;51.520;6.818;2022-10-17T18:48:38;10.67;;;6.40;;
4527;SDS011;62320;51.520;6.818;2022-10-17T18:58:41;13.68;;;6.63;;
4527;SDS011;62320;51.520;6.818;2022-10-17T19:08:43;13.23;;;6.93;;
4527;SDS011;62320;51.520;6.818;2022-10-17T19:18:48;13.10;;;7.10;;
4527;SDS011;62320;51.520;6.818;2022-10-17T19:28:57;13.13;;;6.73;;
4527;SDS011;62320;51.520;6.818;2022-10-17T19:39:02;10.45;;;5.85;;
4527;SDS011;62320;51.520;6.818;2022-10-17T19:49:05;12.50;;;6.70;;
4527;SDS011;62320;51.520;6.818;2022-10-17T19:59:07;14.33;;;6.87;;
4527;SDS011;62320;51.520;6.818;2022-10-17T20:09:11;12.15;;;6.78;;
4527;SDS011;62320;51.520;6.818;2022-10-17T20:19:17;12.00;;;6.23;;
4527;SDS011;62320;51.520;6.818;2022-10-17T20:29:19;12.33;;;7.20;;
4527;SDS011;62320;51.520;6.818;2022-10-17T20:39:21;13.57;;;6.55;;
4527;SDS011;62320;51.520;6.818;2022-10-17T20:49:23;10.88;;;5.72;;
4527;SDS011;62320;51.520;6.818;2022-10-17T20:59:24;13.07;;;5.77;;
4527;SDS011;62320;51.520;6.818;2022-10-17T21:09:27;14.23;;;5.70;;
4527;SDS011;62320;51.520;6.818;2022-10-17T21:19:29;13.23;;;5.38;;
4527;SDS011;62320;51.520;6.818;2022-10-17T21:29:30;11.00;;;4.37;;
4527;SDS011;62320;51.520;6.818;2022-10-17T21:39:32;10.80;;;5.13;;
4527;SDS011;62320;51.520;6.818;2022-10-17T21:49:33;12.65;;;5.22;;
4527;SDS011;62320;51.520;6.818;2022-10-17T21:59:35;12.83;;;5.20;;
4527;SDS011;62320;51.520;6.818;2022-10-17T22:09:36;13.40;;;5.37;;
4527;SDS011;62320;51.520;6.818;2022-10-17T22:19:37;11.25;;;5.97;;
4527;SDS011;62320;51.520;6.818;2022-10-17T22:29:39;14.13;;;6.57;;
4527;SDS011;62320;51.520;6.818;2022-10-17T22:39:40;10.70;;;5.30;;
4527;SDS011;62320;51.520;6.818;2022-10-17T22:49:41;12.37;;;6.13;;
4527;SDS011;62320;51.520;6.818;2022-10-17T22:59:43;9.38;;;4.90;;
4527;SDS011;62320;51.520;6.818;2022-10-17T23:09:44;8.83;;;4.20;;
4527;SDS011;62320;51.520;6.818;2022-10-17T23:19:45;8.77;;;3.80;;
4527;SDS011;62320;51.520;6.818;2022-10-17T23:29:47;7.55;;;3.33;;
4527;SDS011;62320;51.520;6.818;2022-10-17T23:39:48;7.20;;;3.30;;
4527;SDS011;62320;51.520;6.818;2022-10-17T23:49:49;5.67;;;2.70;;
4527;SDS011;62320;51.520;6.818;2022-10-17T23:59:51;7.63;;;2.60;;
